aviador You're here:

KGAD Decoded Metar

GADSDEN MUNI in AL, USA
Report Time2018-01-17 17:56:00
UTC Time2018-01-17 18:16:03
Flight Rules vfr VFR
Wind330° at 09 Gusting to 17 kt
W.Decomp.*RWY 36: 8.0 kt HW 4.1 kt LCW
RWY 06: 0.5 kt HW 9 kt LCW
W.Rank330° ranks 5
Current wind is above 330° avg. (6.5)
Visibility9999 m
Phenomena:N/A
Clouds:N/A
Expected CloudBase > 2,800 ft AGL from Temp-Dew spread
CeilingNone
Temp-6°C (ISA -20)
Dew Point-13°C (58% RH)
AAT-12.5°C
QNH1035 hPa
Density Alt-2,605 ft
Elevation568 ft
Report Wrong Elevation
Raw Report
METAR KGAD 171756Z AUTO 33009G17KT 10SM CLR M06/M13 A3056 RMK AO2 SLP362
60000 T10561128 11056 21133 58012 FZRANO=

Extra information for KGAD:More info

Metar Taf Metar & Taf Last 4 Metars F.Rules Stats Wind Profile Meteogram Temp Stats Airport Information Weather charts Add Link Nearby VenuesMetar ALERT Operation Metar Decoded Social comments

AIRNAV info for KGAD